Time;durP1;ratioP1;P1;durP2;ratioP2;P2;SDS_P1;SDS_P2;PMS_P1;PMS_P2;Temp;Humidity;BMP_temperature;BMP_pressure;BME280_temperature;BME280_humidity;BME280_pressure;Samples;Min_cycle;Max_cycle;Signal;HPM_P1;HPM_P2
2021/06/17 00:00:20;;;;;;;7.30;4.90;;;;;;;;;;5033843;28;20978;-62
2021/06/17 00:02:48;;;;;;;5.43;4.83;;;;;;;;;;5032222;28;20986;-63
2021/06/17 00:05:18;;;;;;;7.43;5.40;;;;;;;;;;5032950;28;20451;-62
2021/06/17 00:07:46;;;;;;;6.23;4.80;;;;;;;;;;5033043;28;20472;-63
2021/06/17 00:10:15;;;;;;;4.87;4.37;;;;;;;;;;5033550;28;20456;-63
2021/06/17 00:12:42;;;;;;;6.80;4.70;;;;;;;;;;5033121;28;20453;-63
2021/06/17 00:15:11;;;;;;;5.30;4.03;;;;;;;;;;5033345;28;20488;-63
2021/06/17 00:17:39;;;;;;;4.63;4.23;;;;;;;;;;5032422;28;20548;-62
2021/06/17 00:20:07;;;;;;;5.60;3.70;;;;;;;;;;5033371;28;20456;-63
2021/06/17 00:22:35;;;;;;;4.00;3.70;;;;;;;;;;5032575;28;20463;-62
2021/06/17 00:25:02;;;;;;;4.63;4.20;;;;;;;;;;5033023;28;20441;-63
2021/06/17 00:27:29;;;;;;;3.80;3.50;;;;;;;;;;5031910;28;20479;-63
2021/06/17 00:29:57;;;;;;;4.43;3.93;;;;;;;;;;5033943;28;20775;-63
2021/06/17 00:32:24;;;;;;;4.70;3.97;;;;;;;;;;5032629;28;20952;-63
2021/06/17 00:34:51;;;;;;;4.20;3.80;;;;;;;;;;5033568;28;20476;-63
2021/06/17 00:37:18;;;;;;;3.87;3.57;;;;;;;;;;5032390;28;20479;-63
2021/06/17 00:39:46;;;;;;;4.17;3.47;;;;;;;;;;5033523;28;20819;-62
2021/06/17 00:42:13;;;;;;;4.43;4.03;;;;;;;;;;5033065;28;20457;-63
2021/06/17 00:44:41;;;;;;;3.97;3.67;;;;;;;;;;5033271;28;20440;-62
2021/06/17 00:47:08;;;;;;;6.93;4.33;;;;;;;;;;5031927;28;20476;-62
2021/06/17 00:49:35;;;;;;;4.83;4.33;;;;;;;;;;5032904;28;20457;-62
2021/06/17 00:52:05;;;;;;;4.03;3.50;;;;;;;;;;5033029;28;20463;-62
2021/06/17 00:54:32;;;;;;;5.20;4.40;;;;;;;;;;5032984;28;20520;-62
2021/06/17 00:57:01;;;;;;;4.70;3.70;;;;;;;;;;5031757;28;20998;-62
2021/06/17 00:59:28;;;;;;;4.03;3.70;;;;;;;;;;5032819;28;20453;-63
2021/06/17 01:01:55;;;;;;;4.50;4.10;;;;;;;;;;5032677;28;20993;-63
2021/06/17 01:04:23;;;;;;;4.10;3.70;;;;;;;;;;5032328;28;20453;-63
2021/06/17 01:06:51;;;;;;;3.67;3.20;;;;;;;;;;5031846;28;21026;-61
2021/06/17 01:09:25;;;;;;;4.60;3.80;;;;;;;;;;5032903;28;20448;-61
2021/06/17 01:11:58;;;;;;;3.87;3.57;;;;;;;;;;5032668;28;20511;-62
2021/06/17 01:14:31;;;;;;;3.57;3.27;;;;;;;;;;5032674;28;20433;-62
2021/06/17 01:17:00;;;;;;;4.50;4.10;;;;;;;;;;5031641;28;20479;-62
2021/06/17 01:19:33;;;;;;;3.87;3.57;;;;;;;;;;5032769;28;20463;-63
2021/06/17 01:22:10;;;;;;;4.20;3.80;;;;;;;;;;5032715;28;20445;-62
2021/06/17 01:24:42;;;;;;;3.50;3.20;;;;;;;;;;5032309;28;20437;-63
2021/06/17 01:27:15;;;;;;;3.57;3.20;;;;;;;;;;5032083;28;20483;-63
2021/06/17 01:29:46;;;;;;;3.60;3.30;;;;;;;;;;5032752;28;20444;-61
2021/06/17 01:32:13;;;;;;;3.83;3.37;;;;;;;;;;5033186;28;20457;-63
2021/06/17 01:34:41;;;;;;;4.13;3.67;;;;;;;;;;5032476;28;20480;-63
2021/06/17 01:37:10;;;;;;;3.77;3.47;;;;;;;;;;5032643;28;20473;-63
2021/06/17 01:39:38;;;;;;;3.77;3.47;;;;;;;;;;5037320;28;20448;-62
2021/06/17 01:42:06;;;;;;;3.77;3.37;;;;;;;;;;5045026;28;20455;-63
2021/06/17 01:44:34;;;;;;;4.97;3.00;;;;;;;;;;5045623;28;20535;-63
2021/06/17 01:47:04;;;;;;;4.50;3.47;;;;;;;;;;5044262;28;20830;-63
2021/06/17 01:49:31;;;;;;;3.30;3.00;;;;;;;;;;5045022;28;20452;-62
2021/06/17 01:51:59;;;;;;;3.60;3.30;;;;;;;;;;5044938;28;20441;-63
2021/06/17 01:54:27;;;;;;;3.60;3.30;;;;;;;;;;5043559;28;20833;-63
2021/06/17 01:56:55;;;;;;;4.03;3.70;;;;;;;;;;5032848;28;20464;-65
2021/06/17 01:59:24;;;;;;;3.90;3.60;;;;;;;;;;5033177;28;20464;-63
2021/06/17 02:01:54;;;;;;;4.40;3.47;;;;;;;;;;5033290;28;20539;-63
2021/06/17 02:04:22;;;;;;;7.33;4.00;;;;;;;;;;5033721;28;20462;-63
2021/06/17 02:06:50;;;;;;;3.50;3.20;;;;;;;;;;5031928;28;20473;-61
2021/06/17 02:09:17;;;;;;;3.30;2.93;;;;;;;;;;5032940;28;20440;-63
2021/06/17 02:11:44;;;;;;;3.73;3.33;;;;;;;;;;5033187;28;20452;-63
2021/06/17 02:14:12;;;;;;;5.33;3.40;;;;;;;;;;5033928;28;20476;-62
2021/06/17 02:16:41;;;;;;;5.33;3.63;;;;;;;;;;5032149;28;20576;-62
2021/06/17 02:19:09;;;;;;;3.87;3.30;;;;;;;;;;5041854;28;20444;-62
2021/06/17 02:21:38;;;;;;;8.10;3.50;;;;;;;;;;5045418;28;20453;-63
2021/06/17 02:24:09;;;;;;;6.03;3.80;;;;;;;;;;5047859;28;20452;-63
2021/06/17 02:26:39;;;;;;;4.87;3.03;;;;;;;;;;5048937;28;20524;-60
2021/06/17 02:29:09;;;;;;;4.80;3.53;;;;;;;;;;5048269;28;20436;-60
2021/06/17 02:31:37;;;;;;;3.27;2.97;;;;;;;;;;5049950;28;20444;-62
2021/06/17 02:34:04;;;;;;;3.73;2.97;;;;;;;;;;5049074;28;20456;-62
2021/06/17 02:36:31;;;;;;;3.30;3.00;;;;;;;;;;5050158;28;20548;-63
2021/06/17 02:39:02;;;;;;;3.57;3.27;;;;;;;;;;5035395;28;20457;-63
2021/06/17 02:41:30;;;;;;;3.70;3.10;;;;;;;;;;5035600;28;20448;-63
2021/06/17 02:43:58;;;;;;;3.37;3.00;;;;;;;;;;5034416;28;20456;-62
2021/06/17 02:46:25;;;;;;;2.90;2.70;;;;;;;;;;5034147;28;20487;-62
2021/06/17 02:48:53;;;;;;;3.40;3.10;;;;;;;;;;5035273;28;20451;-64
2021/06/17 02:51:20;;;;;;;3.57;3.33;;;;;;;;;;5034618;28;20455;-62
2021/06/17 02:53:48;;;;;;;3.13;2.93;;;;;;;;;;5034813;28;20453;-62
2021/06/17 02:56:21;;;;;;;3.60;3.30;;;;;;;;;;5033925;28;20857;-63
2021/06/17 02:58:58;;;;;;;3.07;2.77;;;;;;;;;;5034309;28;20817;-63
2021/06/17 03:01:28;;;;;;;5.23;3.53;;;;;;;;;;5034962;28;20444;-61
2021/06/17 03:03:57;;;;;;;6.03;3.07;;;;;;;;;;5034739;28;20512;-62
2021/06/17 03:06:26;;;;;;;3.00;2.80;;;;;;;;;;5033619;28;20465;-63
2021/06/17 03:08:56;;;;;;;3.80;3.17;;;;;;;;;;5034379;28;20460;-63
2021/06/17 03:11:26;;;;;;;3.63;3.00;;;;;;;;;;5034031;28;20506;-62
2021/06/17 03:13:57;;;;;;;3.43;3.00;;;;;;;;;;5034302;28;20455;-61
2021/06/17 03:16:26;;;;;;;3.70;3.23;;;;;;;;;;5032610;28;20485;-62
2021/06/17 03:18:53;;;;;;;3.07;2.83;;;;;;;;;;5034067;28;20467;-62
2021/06/17 03:21:22;;;;;;;3.73;3.20;;;;;;;;;;5033817;28;20967;-63
2021/06/17 03:23:50;;;;;;;3.07;2.80;;;;;;;;;;5034052;28;20475;-63
2021/06/17 03:26:17;;;;;;;2.87;2.67;;;;;;;;;;5032798;28;20472;-62
2021/06/17 03:28:47;;;;;;;2.83;2.63;;;;;;;;;;5033797;28;20461;-63
2021/06/17 03:31:14;;;;;;;4.13;3.10;;;;;;;;;;5033273;28;20453;-61
2021/06/17 03:33:42;;;;;;;2.90;2.70;;;;;;;;;;5034152;28;20444;-62
2021/06/17 03:36:10;;;;;;;3.87;2.90;;;;;;;;;;5033443;28;20488;-62
2021/06/17 03:38:38;;;;;;;3.10;2.80;;;;;;;;;;5033025;28;20532;-62
2021/06/17 03:41:06;;;;;;;2.60;2.33;;;;;;;;;;5033796;28;20452;-63
2021/06/17 03:43:34;;;;;;;4.80;3.17;;;;;;;;;;5033612;28;20455;-63
2021/06/17 03:46:03;;;;;;;2.67;2.47;;;;;;;;;;5032440;28;20795;-63
2021/06/17 03:48:30;;;;;;;4.63;3.03;;;;;;;;;;5033330;28;20452;-62
2021/06/17 03:50:59;;;;;;;4.20;2.97;;;;;;;;;;5033630;28;20460;-63
2021/06/17 03:53:27;;;;;;;4.30;2.20;;;;;;;;;;5033376;28;20453;-63
2021/06/17 03:55:54;;;;;;;2.60;2.40;;;;;;;;;;5032200;28;20484;-61
2021/06/17 03:58:23;;;;;;;4.90;2.60;;;;;;;;;;5033322;28;20459;-63
2021/06/17 04:00:50;;;;;;;5.23;3.10;;;;;;;;;;5033177;28;20456;-62
2021/06/17 04:03:20;;;;;;;3.10;2.60;;;;;;;;;;5032689;28;20821;-63
2021/06/17 04:05:47;;;;;;;6.50;3.13;;;;;;;;;;5032215;28;20451;-62
2021/06/17 04:08:15;;;;;;;2.80;2.60;;;;;;;;;;5033263;28;20476;-61
2021/06/17 04:10:43;;;;;;;4.00;2.80;;;;;;;;;;5032498;28;20482;-62
2021/06/17 04:13:11;;;;;;;4.07;2.87;;;;;;;;;;5033341;28;20453;-61
2021/06/17 04:15:39;;;;;;;3.57;2.63;;;;;;;;;;5032784;28;20489;-61
2021/06/17 04:18:06;;;;;;;2.70;2.50;;;;;;;;;;5032624;28;20479;-63
2021/06/17 04:20:36;;;;;;;3.70;2.90;;;;;;;;;;5033299;28;20449;-62
2021/06/17 04:23:04;;;;;;;3.20;3.00;;;;;;;;;;5031868;28;20464;-63
2021/06/17 04:25:31;;;;;;;4.30;4.00;;;;;;;;;;5032387;28;20448;-62
2021/06/17 04:28:00;;;;;;;5.73;3.73;;;;;;;;;;5032006;28;20484;-60
2021/06/17 04:30:29;;;;;;;4.40;4.00;;;;;;;;;;5032900;28;20457;-62
2021/06/17 04:32:56;;;;;;;4.73;4.33;;;;;;;;;;5032418;28;20448;-62
2021/06/17 04:35:24;;;;;;;4.70;4.30;;;;;;;;;;5032217;28;20445;-62
2021/06/17 04:37:53;;;;;;;5.00;4.47;;;;;;;;;;5032099;28;20556;-62
2021/06/17 04:40:21;;;;;;;5.80;4.80;;;;;;;;;;5032779;28;20445;-62
2021/06/17 04:42:49;;;;;;;5.00;4.50;;;;;;;;;;5032505;28;20484;-62
2021/06/17 04:45:16;;;;;;;4.43;4.13;;;;;;;;;;5032131;28;20692;-61
2021/06/17 04:47:49;;;;;;;5.90;5.00;;;;;;;;;;5075688;22;20511;-64
2021/06/17 04:50:16;;;;;;;6.10;4.90;;;;;;;;;;5092175;28;20928;-64
2021/06/17 04:53:04;;;;;;;6.10;4.40;;;;;;;;;;5081128;28;20862;-64
2021/06/17 04:55:33;;;;;;;4.97;4.57;;;;;;;;;;5071871;28;20845;-65
2021/06/17 04:58:00;;;;;;;5.80;3.40;;;;;;;;;;5075764;28;20482;-64
2021/06/17 05:00:27;;;;;;;3.37;3.03;;;;;;;;;;5072632;28;20466;-65
2021/06/17 05:02:54;;;;;;;5.17;3.60;;;;;;;;;;5071685;28;20447;-64
2021/06/17 05:05:21;;;;;;;4.90;3.57;;;;;;;;;;5072059;28;20964;-64
2021/06/17 05:10:48;;;;;;;4.40;3.07;;;;;;;;;;5071923;28;20478;-65
2021/06/17 05:10:48;;;;;;;4.17;2.70;;;;;;;;;;5071672;28;20505;-64
2021/06/17 05:13:15;;;;;;;3.30;2.83;;;;;;;;;;5071641;28;20795;-64
2021/06/17 05:15:43;;;;;;;5.13;3.07;;;;;;;;;;5072265;28;20446;-64
2021/06/17 05:18:10;;;;;;;3.03;2.67;;;;;;;;;;5072119;28;20463;-65
2021/06/17 05:20:37;;;;;;;3.30;2.97;;;;;;;;;;5072333;28;20443;-64
2021/06/17 05:23:05;;;;;;;3.80;3.40;;;;;;;;;;5072197;28;20443;-65
2021/06/17 05:25:32;;;;;;;3.53;2.70;;;;;;;;;;5071281;28;20961;-65
2021/06/17 05:28:00;;;;;;;3.50;2.63;;;;;;;;;;5071909;28;20463;-65
2021/06/17 05:30:28;;;;;;;4.47;2.80;;;;;;;;;;5072020;28;20446;-64
2021/06/17 05:32:55;;;;;;;3.00;2.80;;;;;;;;;;5072306;28;20451;-64
2021/06/17 05:35:22;;;;;;;3.80;3.50;;;;;;;;;;5071478;28;20459;-65
2021/06/17 05:37:50;;;;;;;4.37;3.60;;;;;;;;;;5072154;28;20491;-65
2021/06/17 05:40:17;;;;;;;3.33;3.03;;;;;;;;;;5069352;28;20470;-64
2021/06/17 05:42:44;;;;;;;4.57;4.17;;;;;;;;;;5054644;28;20550;-64
2021/06/17 05:45:13;;;;;;;8.60;5.10;;;;;;;;;;5070714;28;20463;-65
2021/06/17 05:47:41;;;;;;;5.63;4.73;;;;;;;;;;5070756;28;20557;-66
2021/06/17 05:50:08;;;;;;;5.30;4.73;;;;;;;;;;5071484;28;20470;-66
2021/06/17 05:52:35;;;;;;;5.50;5.00;;;;;;;;;;5070712;28;21540;-66
2021/06/17 05:55:03;;;;;;;4.67;4.13;;;;;;;;;;5069968;28;20954;-66
2021/06/17 05:57:30;;;;;;;10.23;5.00;;;;;;;;;;5069345;28;20878;-66
2021/06/17 05:59:57;;;;;;;4.43;4.03;;;;;;;;;;5065950;28;20459;-69
2021/06/17 06:02:26;;;;;;;6.07;4.77;;;;;;;;;;5055646;28;20447;-70
2021/06/17 06:04:53;;;;;;;5.50;5.00;;;;;;;;;;5074781;28;20564;-66
2021/06/17 06:07:20;;;;;;;6.63;5.10;;;;;;;;;;5073408;28;20486;-67
2021/06/17 06:09:47;;;;;;;7.00;6.40;;;;;;;;;;5074778;28;20975;-66
2021/06/17 06:12:15;;;;;;;6.83;6.23;;;;;;;;;;5076115;28;20442;-66
2021/06/17 06:14:42;;;;;;;6.50;5.90;;;;;;;;;;5075212;28;20466;-66
2021/06/17 06:17:09;;;;;;;8.33;6.40;;;;;;;;;;5074399;28;20516;-67
2021/06/17 06:19:37;;;;;;;7.90;6.30;;;;;;;;;;5072643;28;20473;-66
2021/06/17 06:22:05;;;;;;;6.90;5.90;;;;;;;;;;5074321;28;20464;-66
2021/06/17 06:24:33;;;;;;;5.70;5.30;;;;;;;;;;5073900;28;20467;-66
2021/06/17 06:27:00;;;;;;;7.30;6.70;;;;;;;;;;5074189;28;20582;-66
2021/06/17 06:29:27;;;;;;;7.40;6.70;;;;;;;;;;5074508;28;20459;-66
2021/06/17 06:31:55;;;;;;;7.00;6.50;;;;;;;;;;5074598;28;20458;-66
2021/06/17 06:34:22;;;;;;;10.27;6.70;;;;;;;;;;5074131;28;20474;-67
2021/06/17 06:36:50;;;;;;;7.67;7.07;;;;;;;;;;5074617;28;20483;-66
2021/06/17 06:39:18;;;;;;;7.17;6.57;;;;;;;;;;5071991;28;20462;-67
2021/06/17 06:41:45;;;;;;;8.70;6.90;;;;;;;;;;5075425;28;20557;-67
2021/06/17 06:44:13;;;;;;;8.33;6.40;;;;;;;;;;5074343;28;20459;-67
2021/06/17 06:46:40;;;;;;;7.17;6.53;;;;;;;;;;5074592;28;20968;-67
2021/06/17 06:49:08;;;;;;;8.90;6.97;;;;;;;;;;5071337;28;21539;-67
2021/06/17 06:51:38;;;;;;;7.43;6.93;;;;;;;;;;5073606;28;20473;-66
2021/06/17 06:54:07;;;;;;;8.37;7.57;;;;;;;;;;5072021;28;20467;-66
2021/06/17 06:56:34;;;;;;;8.13;7.20;;;;;;;;;;5074576;28;20475;-66
2021/06/17 06:59:01;;;;;;;6.57;6.07;;;;;;;;;;5074260;28;20851;-67
2021/06/17 07:01:28;;;;;;;7.13;6.43;;;;;;;;;;5074564;28;20473;-68
2021/06/17 07:03:55;;;;;;;7.03;6.50;;;;;;;;;;5073727;28;20463;-67
2021/06/17 07:06:22;;;;;;;6.83;6.10;;;;;;;;;;5072698;28;20953;-68
2021/06/17 07:08:49;;;;;;;6.90;6.40;;;;;;;;;;5074150;28;20482;-67
2021/06/17 07:11:18;;;;;;;7.17;6.47;;;;;;;;;;5074678;28;20455;-66
2021/06/17 07:13:45;;;;;;;7.30;6.60;;;;;;;;;;5073272;28;20462;-67
2021/06/17 07:16:12;;;;;;;7.23;6.63;;;;;;;;;;5073093;28;20477;-66
2021/06/17 07:18:39;;;;;;;7.63;6.93;;;;;;;;;;5073784;28;20820;-66
2021/06/17 07:21:06;;;;;;;8.37;6.90;;;;;;;;;;5072244;28;20469;-67
2021/06/17 07:23:34;;;;;;;6.83;6.27;;;;;;;;;;5073290;28;20956;-67
2021/06/17 07:26:01;;;;;;;8.57;7.13;;;;;;;;;;5073906;28;20504;-67
2021/06/17 07:28:29;;;;;;;6.73;6.13;;;;;;;;;;5072979;28;20479;-67
2021/06/17 07:30:57;;;;;;;7.70;7.10;;;;;;;;;;5074456;28;20449;-66
2021/06/17 07:33:24;;;;;;;7.47;6.80;;;;;;;;;;5072528;28;20459;-67
2021/06/17 07:35:51;;;;;;;7.47;6.87;;;;;;;;;;5073743;28;20466;-66
2021/06/17 07:38:18;;;;;;;6.50;6.00;;;;;;;;;;5073757;28;20487;-67
2021/06/17 07:40:45;;;;;;;6.50;5.90;;;;;;;;;;5073695;28;20467;-67
2021/06/17 07:43:12;;;;;;;6.40;5.90;;;;;;;;;;5074128;28;20443;-67
2021/06/17 07:45:40;;;;;;;6.60;6.00;;;;;;;;;;5072455;28;20453;-67
2021/06/17 07:48:10;;;;;;;6.60;6.10;;;;;;;;;;5074309;28;20470;-67
2021/06/17 07:50:38;;;;;;;7.00;6.47;;;;;;;;;;5073698;28;20957;-67
2021/06/17 07:53:05;;;;;;;6.43;5.93;;;;;;;;;;5073328;28;20477;-67
2021/06/17 07:55:32;;;;;;;7.20;6.53;;;;;;;;;;5072459;28;20499;-66
2021/06/17 07:57:59;;;;;;;7.80;6.10;;;;;;;;;;5073675;28;20479;-68
2021/06/17 08:00:29;;;;;;;7.70;6.77;;;;;;;;;;5073297;28;20466;-68
2021/06/17 08:02:58;;;;;;;6.63;6.03;;;;;;;;;;5071615;28;21025;-67
2021/06/17 08:05:25;;;;;;;6.40;5.80;;;;;;;;;;5072733;28;20949;-66
2021/06/17 08:07:53;;;;;;;6.93;6.37;;;;;;;;;;5072093;28;20479;-67
2021/06/17 08:10:20;;;;;;;6.90;6.30;;;;;;;;;;5074132;28;20462;-68
2021/06/17 08:12:47;;;;;;;7.03;6.30;;;;;;;;;;5071755;28;20957;-67
2021/06/17 08:15:14;;;;;;;7.77;6.60;;;;;;;;;;5073788;28;20458;-67
2021/06/17 08:17:42;;;;;;;6.80;6.20;;;;;;;;;;5070635;28;20517;-67
2021/06/17 08:20:11;;;;;;;6.43;5.80;;;;;;;;;;5073684;28;20497;-67
2021/06/17 08:22:38;;;;;;;6.20;5.70;;;;;;;;;;5072483;28;20467;-67
2021/06/17 08:25:06;;;;;;;9.73;5.70;;;;;;;;;;5072214;28;20862;-67
2021/06/17 08:27:34;;;;;;;6.73;6.03;;;;;;;;;;5071916;28;20478;-67
2021/06/17 08:30:02;;;;;;;6.90;5.93;;;;;;;;;;5072028;28;20459;-67
2021/06/17 08:32:29;;;;;;;7.13;6.53;;;;;;;;;;5070584;28;20957;-67
2021/06/17 08:34:56;;;;;;;12.50;6.83;;;;;;;;;;5072847;28;20462;-67
2021/06/17 08:37:25;;;;;;;8.27;6.77;;;;;;;;;;5072423;28;20482;-67
2021/06/17 08:39:54;;;;;;;6.70;6.20;;;;;;;;;;5071699;28;20467;-67
2021/06/17 08:42:22;;;;;;;6.53;5.93;;;;;;;;;;5072570;28;20546;-67
2021/06/17 08:44:49;;;;;;;9.20;6.10;;;;;;;;;;5072181;28;20462;-68
2021/06/17 08:47:16;;;;;;;8.27;6.20;;;;;;;;;;5069526;28;21019;-67
2021/06/17 08:49:43;;;;;;;5.93;5.40;;;;;;;;;;5071526;28;20435;-68
2021/06/17 08:52:13;;;;;;;6.67;6.07;;;;;;;;;;5066727;28;20462;-67
2021/06/17 08:54:42;;;;;;;6.40;5.80;;;;;;;;;;5071588;28;20466;-67
2021/06/17 08:57:09;;;;;;;6.40;5.90;;;;;;;;;;5069414;28;20494;-68
2021/06/17 08:59:38;;;;;;;6.90;6.30;;;;;;;;;;5071869;28;20473;-67
2021/06/17 09:02:06;;;;;;;6.60;5.97;;;;;;;;;;5068596;28;20462;-67
2021/06/17 09:04:33;;;;;;;7.50;6.00;;;;;;;;;;5071985;28;20455;-66
2021/06/17 09:07:01;;;;;;;11.03;6.33;;;;;;;;;;5068278;28;20458;-67
2021/06/17 09:09:31;;;;;;;7.27;6.57;;;;;;;;;;5071780;28;20438;-67
2021/06/17 09:12:00;;;;;;;6.77;6.17;;;;;;;;;;5070172;28;20471;-67
2021/06/17 09:14:28;;;;;;;6.30;5.70;;;;;;;;;;5071518;28;20453;-67
2021/06/17 09:16:59;;;;;;;7.00;6.30;;;;;;;;;;5069523;28;20557;-67
2021/06/17 09:19:36;;;;;;;6.00;5.60;;;;;;;;;;5071055;28;20501;-67
2021/06/17 09:22:04;;;;;;;7.30;5.77;;;;;;;;;;5068402;28;20458;-67
2021/06/17 09:24:33;;;;;;;7.33;5.67;;;;;;;;;;5064884;28;20465;-67
2021/06/17 09:27:15;;;;;;;7.20;6.60;;;;;;;;;;5070434;28;20446;-67
2021/06/17 09:29:44;;;;;;;6.63;6.00;;;;;;;;;;5068167;28;20462;-67
2021/06/17 09:32:18;;;;;;;7.13;6.53;;;;;;;;;;5051576;28;20813;-67
2021/06/17 09:34:45;;;;;;;6.47;5.83;;;;;;;;;;5065399;28;20459;-67
2021/06/17 09:37:27;;;;;;;6.57;6.07;;;;;;;;;;5069096;28;20493;-68
2021/06/17 09:39:54;;;;;;;6.30;5.70;;;;;;;;;;5070155;28;20461;-68
2021/06/17 09:42:21;;;;;;;6.47;5.87;;;;;;;;;;5070835;28;20477;-67
2021/06/17 09:44:49;;;;;;;6.50;5.90;;;;;;;;;;5070745;28;20457;-67
2021/06/17 09:47:19;;;;;;;6.20;5.60;;;;;;;;;;5060553;28;20499;-67
2021/06/17 09:49:46;;;;;;;5.77;5.27;;;;;;;;;;5062719;28;20981;-67
2021/06/17 09:52:15;;;;;;;6.37;5.87;;;;;;;;;;5061198;28;21056;-67
2021/06/17 09:54:43;;;;;;;6.07;5.50;;;;;;;;;;5071011;28;20446;-67
2021/06/17 09:57:11;;;;;;;6.30;5.80;;;;;;;;;;5069848;28;20466;-67
2021/06/17 09:59:41;;;;;;;6.20;5.63;;;;;;;;;;5063320;28;20497;-68
2021/06/17 10:02:10;;;;;;;6.17;5.67;;;;;;;;;;5067346;28;20945;-67
2021/06/17 10:04:37;;;;;;;6.83;5.93;;;;;;;;;;5070613;28;20456;-67
2021/06/17 10:07:06;;;;;;;5.70;5.20;;;;;;;;;;5068031;28;20561;-68
2021/06/17 10:09:33;;;;;;;6.70;6.10;;;;;;;;;;5069781;28;20442;-67
2021/06/17 10:12:00;;;;;;;6.20;5.70;;;;;;;;;;5069477;28;20450;-67
2021/06/17 10:14:29;;;;;;;6.70;5.97;;;;;;;;;;5070563;28;20468;-67
2021/06/17 10:16:56;;;;;;;6.30;5.80;;;;;;;;;;5069533;28;20461;-67
2021/06/17 10:19:25;;;;;;;6.33;5.83;;;;;;;;;;5069822;28;21075;-67
2021/06/17 10:21:52;;;;;;;7.17;5.30;;;;;;;;;;5068717;28;20467;-67
2021/06/17 10:24:20;;;;;;;6.00;5.50;;;;;;;;;;5071245;28;20512;-68
2021/06/17 10:26:48;;;;;;;8.17;5.57;;;;;;;;;;5068363;28;20485;-67
2021/06/17 10:29:34;;;;;;;6.10;5.50;;;;;;;;;;5068188;28;20462;-65
2021/06/17 10:32:01;;;;;;;6.63;5.60;;;;;;;;;;5069415;28;20515;-66
2021/06/17 10:34:34;;;;;;;5.60;4.90;;;;;;;;;;5070864;28;20454;-65
2021/06/17 10:37:12;;;;;;;6.20;5.73;;;;;;;;;;5070423;28;20536;-65
2021/06/17 10:39:40;;;;;;;6.03;5.57;;;;;;;;;;5070560;28;20456;-65
2021/06/17 10:42:24;;;;;;;7.03;5.43;;;;;;;;;;5070185;28;20963;-64
2021/06/17 10:44:54;;;;;;;4.63;4.23;;;;;;;;;;5051182;28;20430;-65
2021/06/17 10:47:40;;;;;;;5.03;4.50;;;;;;;;;;5051579;28;20982;-65
2021/06/17 10:50:10;;;;;;;5.63;4.90;;;;;;;;;;5084256;22;20493;-65
2021/06/17 10:52:38;;;;;;;5.70;5.20;;;;;;;;;;5072754;28;20486;-65
2021/06/17 10:55:06;;;;;;;5.93;5.33;;;;;;;;;;5074356;28;20533;-66
2021/06/17 10:57:53;;;;;;;5.20;4.80;;;;;;;;;;5072835;28;20490;-65
2021/06/17 11:00:50;;;;;;;5.00;4.57;;;;;;;;;;5089584;28;20481;-65
2021/06/17 11:03:36;;;;;;;6.07;5.47;;;;;;;;;;5030521;28;20440;-64
2021/06/17 11:06:04;;;;;;;6.20;4.90;;;;;;;;;;5066522;28;20461;-65
2021/06/17 11:08:32;;;;;;;5.67;5.17;;;;;;;;;;5073943;28;20447;-64
2021/06/17 11:11:00;;;;;;;6.20;5.60;;;;;;;;;;5074904;28;20951;-65
2021/06/17 11:13:28;;;;;;;6.70;5.80;;;;;;;;;;5094106;28;20459;-65
2021/06/17 11:15:55;;;;;;;5.87;4.30;;;;;;;;;;5091259;28;20497;-65
2021/06/17 11:18:41;;;;;;;7.13;5.23;;;;;;;;;;5094441;28;20844;-66
2021/06/17 11:21:23;;;;;;;5.90;5.13;;;;;;;;;;5092108;28;20453;-65
2021/06/17 11:23:53;;;;;;;5.17;4.70;;;;;;;;;;5073800;28;20517;-66
2021/06/17 11:26:36;;;;;;;4.53;4.13;;;;;;;;;;5072859;28;20466;-65
2021/06/17 11:29:04;;;;;;;5.63;4.33;;;;;;;;;;5084783;28;20463;-65
2021/06/17 11:31:41;;;;;;;5.70;4.60;;;;;;;;;;5082271;28;20909;-65
2021/06/17 11:34:08;;;;;;;5.53;5.13;;;;;;;;;;5077119;28;20441;-65
2021/06/17 11:36:36;;;;;;;6.03;5.53;;;;;;;;;;5093279;28;20456;-65
2021/06/17 11:39:04;;;;;;;5.60;5.10;;;;;;;;;;5092143;28;20543;-66
2021/06/17 11:41:33;;;;;;;5.70;4.80;;;;;;;;;;5092085;28;20803;-65
2021/06/17 11:44:02;;;;;;;5.30;4.80;;;;;;;;;;5082373;28;20824;-65
2021/06/17 11:46:30;;;;;;;5.10;4.80;;;;;;;;;;5091869;28;20446;-65
2021/06/17 11:48:59;;;;;;;6.13;4.80;;;;;;;;;;5090936;28;20219;-66
2021/06/17 11:51:26;;;;;;;5.50;5.03;;;;;;;;;;5093757;28;20210;-66
2021/06/17 11:53:54;;;;;;;5.27;4.83;;;;;;;;;;5090776;28;20200;-67
2021/06/17 11:56:30;;;;;;;5.50;4.90;;;;;;;;;;5085446;28;20208;-67
2021/06/17 11:58:57;;;;;;;5.10;4.70;;;;;;;;;;5082726;28;21120;-68
2021/06/17 12:01:26;;;;;;;6.23;5.63;;;;;;;;;;5073309;28;20585;-65
2021/06/17 12:04:09;;;;;;;7.10;4.50;;;;;;;;;;5073179;28;20537;-65
2021/06/17 12:06:37;;;;;;;5.33;4.90;;;;;;;;;;5072501;28;20450;-62
2021/06/17 12:09:13;;;;;;;5.60;4.80;;;;;;;;;;5072828;28;20516;-63
2021/06/17 12:11:41;;;;;;;5.27;4.77;;;;;;;;;;5073100;28;20438;-63
2021/06/17 12:14:08;;;;;;;4.80;4.50;;;;;;;;;;5072677;28;20169;-63
2021/06/17 12:16:35;;;;;;;5.33;5.03;;;;;;;;;;5077279;28;20450;-64
2021/06/17 12:19:03;;;;;;;6.40;5.77;;;;;;;;;;5072406;28;20228;-63
2021/06/17 12:21:33;;;;;;;5.20;4.80;;;;;;;;;;5072973;28;20446;-66
2021/06/17 12:24:00;;;;;;;5.87;5.47;;;;;;;;;;5072639;28;20288;-63
2021/06/17 12:26:31;;;;;;;6.27;5.83;;;;;;;;;;5072581;28;20443;-63
2021/06/17 12:29:01;;;;;;;8.60;5.67;;;;;;;;;;5072619;28;20957;-63
2021/06/17 12:31:32;;;;;;;5.80;5.30;;;;;;;;;;5072943;28;20829;-63
2021/06/17 12:34:06;;;;;;;5.90;5.50;;;;;;;;;;5072431;28;20465;-64
2021/06/17 12:36:33;;;;;;;6.63;6.00;;;;;;;;;;5074796;28;20452;-62
2021/06/17 12:39:13;;;;;;;7.13;6.63;;;;;;;;;;5076986;28;20489;-62
2021/06/17 12:41:42;;;;;;;6.40;5.80;;;;;;;;;;5072289;28;20478;-62
2021/06/17 12:44:10;;;;;;;7.13;6.63;;;;;;;;;;5071862;28;20792;-62
2021/06/17 12:46:38;;;;;;;9.73;8.83;;;;;;;;;;5082634;28;20966;-62
2021/06/17 12:52:01;;;;;;;6.77;6.27;;;;;;;;;;5091808;28;20999;-62
2021/06/17 12:52:10;;;;;;;6.40;5.90;;;;;;;;;;5091941;28;20514;-62
2021/06/17 12:54:39;;;;;;;6.60;6.00;;;;;;;;;;5092325;28;20426;-62
2021/06/17 12:57:07;;;;;;;7.33;6.03;;;;;;;;;;5076153;28;20537;-62
2021/06/17 12:59:40;;;;;;;6.50;6.10;;;;;;;;;;5071648;28;20569;-62
2021/06/17 13:02:07;;;;;;;5.97;5.50;;;;;;;;;;5071773;28;20949;-62
2021/06/17 13:04:34;;;;;;;6.07;5.37;;;;;;;;;;5071744;28;20549;-62
2021/06/17 13:07:01;;;;;;;6.53;5.97;;;;;;;;;;5071139;28;20439;-62
2021/06/17 13:09:29;;;;;;;5.87;5.47;;;;;;;;;;5071367;28;20484;-62
2021/06/17 13:12:13;;;;;;;7.13;6.63;;;;;;;;;;5071065;28;20959;-62
2021/06/17 13:15:00;;;;;;;6.13;5.63;;;;;;;;;;5071643;28;20450;-62
2021/06/17 13:17:28;;;;;;;6.43;5.93;;;;;;;;;;5071059;28;20457;-62
2021/06/17 13:19:57;;;;;;;8.13;6.27;;;;;;;;;;5071682;28;20488;-62
2021/06/17 13:22:24;;;;;;;6.20;5.70;;;;;;;;;;5071136;28;20960;-62
2021/06/17 13:24:52;;;;;;;5.83;5.33;;;;;;;;;;5071780;28;20447;-62
2021/06/17 13:27:20;;;;;;;6.10;5.13;;;;;;;;;;5070703;28;20448;-62
2021/06/17 13:29:55;;;;;;;6.07;5.57;;;;;;;;;;5071541;28;20473;-62
2021/06/17 13:32:23;;;;;;;6.47;5.97;;;;;;;;;;5071531;28;20489;-62
2021/06/17 13:34:51;;;;;;;5.60;5.20;;;;;;;;;;5071515;28;20450;-62
2021/06/17 13:37:18;;;;;;;5.50;5.10;;;;;;;;;;5070311;28;20941;-62
2021/06/17 13:39:46;;;;;;;6.07;5.50;;;;;;;;;;5083428;28;20491;-61
2021/06/17 13:42:13;;;;;;;5.30;4.90;;;;;;;;;;5091504;28;20940;-62
2021/06/17 13:44:40;;;;;;;6.03;4.23;;;;;;;;;;5080571;28;20454;-62
2021/06/17 13:47:08;;;;;;;6.40;4.83;;;;;;;;;;5088225;28;20457;-62
2021/06/17 13:49:37;;;;;;;5.20;4.80;;;;;;;;;;5091038;28;20562;-62
2021/06/17 13:52:05;;;;;;;5.73;4.40;;;;;;;;;;5091139;28;20447;-62
2021/06/17 13:54:32;;;;;;;5.10;4.70;;;;;;;;;;5091609;28;20446;-62
2021/06/17 13:56:59;;;;;;;4.97;4.57;;;;;;;;;;5073781;28;20446;-62
2021/06/17 13:59:26;;;;;;;4.30;4.00;;;;;;;;;;5071143;28;20481;-62
2021/06/17 14:01:53;;;;;;;5.50;5.00;;;;;;;;;;5071062;28;20964;-62
2021/06/17 14:04:21;;;;;;;4.50;4.10;;;;;;;;;;5070811;28;20934;-62
2021/06/17 14:06:49;;;;;;;3.87;3.57;;;;;;;;;;5070542;28;20457;-62
2021/06/17 14:09:16;;;;;;;4.27;3.87;;;;;;;;;;5071342;28;20821;-62
2021/06/17 14:11:44;;;;;;;3.83;3.50;;;;;;;;;;5071400;28;20450;-62
2021/06/17 14:14:11;;;;;;;4.17;3.87;;;;;;;;;;5071171;28;20452;-62
2021/06/17 14:16:38;;;;;;;5.90;4.23;;;;;;;;;;5070479;28;20472;-62
2021/06/17 14:19:05;;;;;;;3.77;3.47;;;;;;;;;;5070529;28;20486;-62
2021/06/17 14:21:32;;;;;;;3.77;3.47;;;;;;;;;;5072036;28;20453;-62
2021/06/17 14:24:01;;;;;;;5.30;3.70;;;;;;;;;;5074615;28;20446;-62
2021/06/17 14:26:28;;;;;;;4.27;3.70;;;;;;;;;;5081774;28;20451;-62
2021/06/17 14:28:55;;;;;;;4.37;4.07;;;;;;;;;;5094766;28;20832;-62
2021/06/17 14:31:22;;;;;;;4.07;3.77;;;;;;;;;;5095080;28;20456;-62
2021/06/17 14:33:49;;;;;;;5.10;3.40;;;;;;;;;;5094557;28;20791;-62
2021/06/17 14:36:16;;;;;;;3.70;3.40;;;;;;;;;;5086893;28;20446;-62
2021/06/17 14:38:43;;;;;;;3.87;3.43;;;;;;;;;;5074440;28;20568;-62
2021/06/17 14:41:13;;;;;;;4.17;3.77;;;;;;;;;;5074166;28;21051;-62
2021/06/17 14:43:42;;;;;;;4.07;3.77;;;;;;;;;;5074568;28;20557;-62
2021/06/17 14:46:09;;;;;;;4.60;4.20;;;;;;;;;;5073614;28;20941;-62
2021/06/17 14:48:36;;;;;;;3.83;3.23;;;;;;;;;;5074387;28;20442;-62
2021/06/17 14:51:04;;;;;;;4.00;3.70;;;;;;;;;;5073930;28;20472;-62
2021/06/17 14:53:31;;;;;;;3.67;3.37;;;;;;;;;;5074308;28;20439;-62